Time,TemperatureF,DewpointF,PressureIn,WindDirection,WindDirectionDegrees,WindSpeedMPH,WindSpeedGustMPH,Humidity,HourlyPrecipIn,Conditions,Clouds,dailyrainin,SoftwareType,DateUTC
2013-10-28 00:01:00,60.0,57.0,30.06,South,178,0.0,0.0,91,0.00,,,0.00,weatherlink.com 1.10,2013-10-28 05:01:00,
2013-10-28 00:16:00,59.6,57.0,30.05,South,178,0.0,0.0,91,0.00,,,0.00,weatherlink.com 1.10,2013-10-28 05:16:00,
2013-10-28 00:31:00,59.1,57.0,30.05,South,178,0.0,0.0,91,0.00,,,0.00,weatherlink.com 1.10,2013-10-28 05:31:00,
2013-10-28 00:46:00,58.9,56.0,30.05,South,178,0.0,0.0,91,0.00,,,0.00,weatherlink.com 1.10,2013-10-28 05:46:00,
2013-10-28 01:01:00,58.7,56.0,30.05,South,178,0.0,0.0,91,0.00,,,0.00,weatherlink.com 1.10,2013-10-28 06:01:00,
2013-10-28 01:16:00,58.6,56.0,30.05,South,178,0.0,0.0,92,0.00,,,0.00,weatherlink.com 1.10,2013-10-28 06:16:00,
2013-10-28 01:31:00,58.2,56.0,30.04,South,178,0.0,0.0,91,0.00,,,0.00,weatherlink.com 1.10,2013-10-28 06:31:00,
2013-10-28 01:46:00,58.3,56.0,30.04,South,178,0.0,0.0,92,0.00,,,0.00,weatherlink.com 1.10,2013-10-28 06:46:00,
2013-10-28 02:01:00,58.5,56.0,30.04,South,178,0.0,0.0,92,0.00,,,0.00,weatherlink.com 1.10,2013-10-28 07:01:00,
2013-10-28 02:16:00,58.3,56.0,30.04,South,178,0.0,0.0,92,0.00,,,0.00,weatherlink.com 1.10,2013-10-28 07:16:00,
2013-10-28 02:31:00,58.1,56.0,30.04,South,178,0.0,0.0,92,0.00,,,0.00,weatherlink.com 1.10,2013-10-28 07:31:00,
2013-10-28 02:46:00,57.8,56.0,30.04,South,178,0.0,0.0,92,0.00,,,0.00,weatherlink.com 1.10,2013-10-28 07:46:00,
2013-10-28 03:01:00,57.4,55.0,30.04,South,178,0.0,0.0,92,0.00,,,0.00,weatherlink.com 1.10,2013-10-28 08:01:00,
2013-10-28 03:16:00,57.3,55.0,30.04,South,178,0.0,0.0,92,0.00,,,0.00,weatherlink.com 1.10,2013-10-28 08:16:00,
2013-10-28 03:31:00,57.2,55.0,30.04,South,178,0.0,0.0,92,0.00,,,0.00,weatherlink.com 1.10,2013-10-28 08:31:00,
2013-10-28 03:46:00,57.6,55.0,30.04,South,178,0.0,0.0,92,0.00,,,0.00,weatherlink.com 1.10,2013-10-28 08:46:00,
2013-10-28 04:01:00,57.5,55.0,30.05,South,178,0.0,0.0,92,0.00,,,0.00,weatherlink.com 1.10,2013-10-28 09:01:00,
2013-10-28 04:16:00,57.2,55.0,30.05,South,178,0.0,0.0,92,0.00,,,0.00,weatherlink.com 1.10,2013-10-28 09:16:00,
2013-10-28 04:46:00,57.4,55.0,30.06,South,178,0.0,0.0,92,0.00,,,0.00,weatherlink.com 1.10,2013-10-28 09:46:00,
2013-10-28 05:01:00,57.4,55.0,30.06,South,178,0.0,0.0,92,0.00,,,0.00,weatherlink.com 1.10,2013-10-28 10:01:00,
2013-10-28 05:16:00,57.7,55.0,30.06,South,178,0.0,0.0,92,0.00,,,0.00,weatherlink.com 1.10,2013-10-28 10:16:00,
2013-10-28 05:31:00,57.9,56.0,30.07,South,178,0.0,0.0,93,0.00,,,0.00,weatherlink.com 1.10,2013-10-28 10:31:00,
2013-10-28 05:46:00,58.4,56.0,30.07,South,178,0.0,0.0,93,0.00,,,0.00,weatherlink.com 1.10,2013-10-28 10:46:00,
2013-10-28 06:01:00,58.7,57.0,30.07,South,178,0.0,0.0,93,0.00,,,0.00,weatherlink.com 1.10,2013-10-28 11:01:00,
2013-10-28 06:16:00,58.9,57.0,30.07,South,178,0.0,0.0,93,0.00,,,0.00,weatherlink.com 1.10,2013-10-28 11:16:00,
2013-10-28 06:31:00,59.0,57.0,30.07,South,178,0.0,0.0,93,0.00,,,0.00,weatherlink.com 1.10,2013-10-28 11:31:00,
2013-10-28 06:46:00,59.0,57.0,30.08,South,178,0.0,0.0,93,0.00,,,0.00,weatherlink.com 1.10,2013-10-28 11:46:00,
2013-10-28 07:01:00,58.8,57.0,30.08,South,178,0.0,0.0,93,0.00,,,0.00,weatherlink.com 1.10,2013-10-28 12:01:00,
2013-10-28 07:16:00,58.8,57.0,30.09,South,178,0.0,0.0,93,0.00,,,0.00,weatherlink.com 1.10,2013-10-28 12:16:00,
2013-10-28 07:31:00,59.3,57.0,30.09,South,178,0.0,0.0,93,0.00,,,0.00,weatherlink.com 1.10,2013-10-28 12:31:00,
2013-10-28 07:47:00,59.6,58.0,30.10,South,178,0.0,0.0,93,0.00,,,0.00,weatherlink.com 1.10,2013-10-28 12:47:00,
2013-10-28 08:02:00,59.9,58.0,30.11,South,178,0.0,0.0,93,0.00,,,0.00,weatherlink.com 1.10,2013-10-28 13:02:00,
2013-10-28 08:17:00,60.4,58.0,30.11,South,178,0.0,0.0,93,0.00,,,0.00,weatherlink.com 1.10,2013-10-28 13:17:00,
2013-10-28 08:32:00,61.0,59.0,30.12,South,178,0.0,0.0,93,0.00,,,0.00,weatherlink.com 1.10,2013-10-28 13:32:00,
2013-10-28 08:47:00,61.6,60.0,30.12,South,178,0.0,0.0,93,0.00,,,0.00,weatherlink.com 1.10,2013-10-28 13:47:00,
2013-10-28 09:02:00,62.4,60.0,30.12,South,178,0.0,0.0,93,0.00,,,0.00,weatherlink.com 1.10,2013-10-28 14:02:00,
2013-10-28 09:17:00,63.4,61.0,30.13,South,178,0.0,0.0,93,0.00,,,0.00,weatherlink.com 1.10,2013-10-28 14:17:00,
2013-10-28 09:32:00,64.5,63.0,30.14,South,178,0.0,0.0,93,0.00,,,0.00,weatherlink.com 1.10,2013-10-28 14:32:00,
2013-10-28 09:47:00,65.9,64.0,30.14,South,178,0.0,0.0,93,0.00,,,0.00,weatherlink.com 1.10,2013-10-28 14:47:00,
2013-10-28 10:02:00,68.1,65.0,30.15,ESE,110,0.0,1.0,91,0.00,,,0.00,weatherlink.com 1.10,2013-10-28 15:02:00,
2013-10-28 10:17:00,68.9,65.0,30.16,ESE,111,0.0,1.0,87,0.00,,,0.00,weatherlink.com 1.10,2013-10-28 15:17:00,
2013-10-28 10:32:00,70.2,65.0,30.16,ESE,111,1.0,2.0,84,0.00,,,0.00,weatherlink.com 1.10,2013-10-28 15:32:00,
2013-10-28 10:47:00,70.9,65.0,30.16,ESE,111,0.0,1.0,82,0.00,,,0.00,weatherlink.com 1.10,2013-10-28 15:47:00,
2013-10-28 11:03:00,71.3,65.0,30.16,ESE,111,0.0,1.0,81,0.00,,,0.00,weatherlink.com 1.10,2013-10-28 16:03:00,
2013-10-28 11:17:00,72.4,66.0,30.16,ESE,111,0.0,2.0,79,0.00,,,0.00,weatherlink.com 1.10,2013-10-28 16:17:00,
2013-10-28 11:32:00,72.6,65.0,30.16,ESE,111,0.0,2.0,78,0.00,,,0.00,weatherlink.com 1.10,2013-10-28 16:32:00,
2013-10-28 11:47:00,72.9,66.0,30.16,ESE,112,1.0,3.0,78,0.00,,,0.00,weatherlink.com 1.10,2013-10-28 16:47:00,
2013-10-28 12:02:00,74.0,66.0,30.15,South,170,0.0,3.0,77,0.00,,,0.00,weatherlink.com 1.10,2013-10-28 17:02:00,
2013-10-28 12:17:00,74.7,67.0,30.15,ESE,117,1.0,2.0,78,0.00,,,0.00,weatherlink.com 1.10,2013-10-28 17:17:00,
2013-10-28 12:32:00,75.4,67.0,30.14,ESE,114,0.0,2.0,76,0.00,,,0.00,weatherlink.com 1.10,2013-10-28 17:32:00,
2013-10-28 12:47:00,75.7,67.0,30.14,ESE,114,0.0,1.0,74,0.00,,,0.00,weatherlink.com 1.10,2013-10-28 17:47:00,
2013-10-28 13:03:00,76.5,68.0,30.13,ESE,123,0.0,3.0,74,0.00,,,0.00,weatherlink.com 1.10,2013-10-28 18:03:00,
2013-10-28 13:18:00,77.2,67.0,30.12,ENE,62,0.0,4.0,70,0.00,,,0.00,weatherlink.com 1.10,2013-10-28 18:18:00,
2013-10-28 13:33:00,78.5,67.0,30.11,ESE,119,0.0,3.0,67,0.00,,,0.00,weatherlink.com 1.10,2013-10-28 18:33:00,
2013-10-28 13:48:00,78.1,67.0,30.10,ESE,119,0.0,2.0,69,0.00,,,0.00,weatherlink.com 1.10,2013-10-28 18:48:00,
2013-10-28 14:03:00,76.7,67.0,30.10,ENE,68,0.0,3.0,72,0.00,,,0.00,weatherlink.com 1.10,2013-10-28 19:03:00,
2013-10-28 14:18:00,78.6,68.0,30.09,SE,125,2.0,3.0,69,0.00,,,0.00,weatherlink.com 1.10,2013-10-28 19:18:00,
2013-10-28 14:33:00,78.0,67.0,30.09,ENE,58,0.0,2.0,69,0.00,,,0.00,weatherlink.com 1.10,2013-10-28 19:33:00,
2013-10-28 14:48:00,79.4,67.0,30.09,SE,134,0.0,6.0,66,0.00,,,0.00,weatherlink.com 1.10,2013-10-28 19:48:00,
2013-10-28 15:03:00,79.5,67.0,30.08,SE,140,0.0,4.0,66,0.00,,,0.00,weatherlink.com 1.10,2013-10-28 20:03:00,
2013-10-28 15:18:00,79.2,67.0,30.08,SE,131,0.0,3.0,66,0.00,,,0.00,weatherlink.com 1.10,2013-10-28 20:18:00,
2013-10-28 15:33:00,78.6,67.0,30.08,East,82,0.0,3.0,68,0.00,,,0.00,weatherlink.com 1.10,2013-10-28 20:33:00,
2013-10-28 15:48:00,77.4,68.0,30.08,East,82,3.0,3.0,72,0.00,,,0.00,weatherlink.com 1.10,2013-10-28 20:48:00,
2013-10-28 16:03:00,78.4,68.0,30.08,ENE,65,4.0,4.0,71,0.00,,,0.00,weatherlink.com 1.10,2013-10-28 21:03:00,
2013-10-28 16:18:00,77.8,67.0,30.07,NE,34,0.0,4.0,70,0.00,,,0.00,weatherlink.com 1.10,2013-10-28 21:18:00,
2013-10-28 16:33:00,77.4,67.0,30.07,SE,129,1.0,2.0,71,0.00,,,0.00,weatherlink.com 1.10,2013-10-28 21:33:00,
2013-10-28 16:48:00,77.8,67.0,30.07,ESE,111,0.0,3.0,70,0.00,,,0.00,weatherlink.com 1.10,2013-10-28 21:48:00,
2013-10-28 17:03:00,77.1,67.0,30.07,ESE,116,0.0,3.0,72,0.00,,,0.00,weatherlink.com 1.10,2013-10-28 22:03:00,
2013-10-28 17:18:00,76.3,67.0,30.07,ESE,103,0.0,3.0,72,0.00,,,0.00,weatherlink.com 1.10,2013-10-28 22:18:00,
2013-10-28 17:33:00,76.0,67.0,30.07,ESE,104,0.0,2.0,74,0.00,,,0.00,weatherlink.com 1.10,2013-10-28 22:33:00,
2013-10-28 17:48:00,75.6,67.0,30.07,East,101,0.0,4.0,75,0.00,,,0.00,weatherlink.com 1.10,2013-10-28 22:48:00,
2013-10-28 18:03:00,75.0,67.0,30.07,East,87,0.0,1.0,77,0.00,,,0.00,weatherlink.com 1.10,2013-10-28 23:03:00,
2013-10-28 18:18:00,74.3,67.0,30.07,East,97,0.0,1.0,78,0.00,,,0.00,weatherlink.com 1.10,2013-10-28 23:18:00,
2013-10-28 18:33:00,73.5,67.0,30.07,East,97,0.0,1.0,79,0.00,,,0.00,weatherlink.com 1.10,2013-10-28 23:33:00,
2013-10-28 18:48:00,72.5,66.0,30.08,East,98,0.0,0.0,81,0.00,,,0.00,weatherlink.com 1.10,2013-10-28 23:48:00,
2013-10-28 19:03:00,71.7,66.0,30.08,East,97,0.0,0.0,83,0.00,,,0.00,weatherlink.com 1.10,2013-10-29 00:03:00,
2013-10-28 19:18:00,71.1,66.0,30.09,East,98,0.0,0.0,84,0.00,,,0.00,weatherlink.com 1.10,2013-10-29 00:18:00,
2013-10-28 19:33:00,70.6,66.0,30.09,ESE,110,0.0,2.0,85,0.00,,,0.00,weatherlink.com 1.10,2013-10-29 00:33:00,
2013-10-28 19:48:00,70.5,66.0,30.09,West,267,1.0,1.0,85,0.00,,,0.00,weatherlink.com 1.10,2013-10-29 00:48:00,
2013-10-28 20:03:00,70.6,66.0,30.09,North,355,0.0,1.0,85,0.00,,,0.00,weatherlink.com 1.10,2013-10-29 01:03:00,
2013-10-28 20:18:00,70.6,66.0,30.10,NNE,28,0.0,2.0,85,0.00,,,0.00,weatherlink.com 1.10,2013-10-29 01:18:00,
2013-10-28 20:33:00,70.4,66.0,30.11,NNE,28,0.0,0.0,85,0.00,,,0.00,weatherlink.com 1.10,2013-10-29 01:33:00,
2013-10-28 20:48:00,70.2,66.0,30.11,North,9,0.0,1.0,85,0.00,,,0.00,weatherlink.com 1.10,2013-10-29 01:48:00,
2013-10-28 21:03:00,70.0,65.0,30.11,East,89,0.0,2.0,85,0.00,,,0.00,weatherlink.com 1.10,2013-10-29 02:03:00,
2013-10-28 21:18:00,69.8,65.0,30.11,SE,134,1.0,1.0,85,0.00,,,0.00,weatherlink.com 1.10,2013-10-29 02:18:00,
2013-10-28 21:33:00,69.6,65.0,30.11,NE,53,0.0,0.0,86,0.00,,,0.00,weatherlink.com 1.10,2013-10-29 02:33:00,
2013-10-28 21:48:00,69.4,65.0,30.11,SSE,168,0.0,2.0,86,0.00,,,0.00,weatherlink.com 1.10,2013-10-29 02:48:00,
2013-10-28 22:03:00,69.3,65.0,30.11,SSE,151,0.0,2.0,86,0.00,,,0.00,weatherlink.com 1.10,2013-10-29 03:03:00,
2013-10-28 22:18:00,69.3,65.0,30.12,SSE,151,0.0,0.0,86,0.00,,,0.00,weatherlink.com 1.10,2013-10-29 03:18:00,
2013-10-28 22:33:00,69.0,65.0,30.12,SSE,151,0.0,0.0,87,0.00,,,0.00,weatherlink.com 1.10,2013-10-29 03:33:00,
2013-10-28 22:48:00,69.1,66.0,30.12,East,97,2.0,3.0,88,0.00,,,0.00,weatherlink.com 1.10,2013-10-29 03:48:00,
2013-10-28 23:03:00,69.2,66.0,30.12,SE,126,0.0,3.0,88,0.00,,,0.00,weatherlink.com 1.10,2013-10-29 04:03:00,
2013-10-28 23:18:00,69.1,66.0,30.12,SE,134,3.0,5.0,88,0.00,,,0.00,weatherlink.com 1.10,2013-10-29 04:18:00,
2013-10-28 23:33:00,69.2,66.0,30.12,ESE,105,2.0,4.0,88,0.00,,,0.00,weatherlink.com 1.10,2013-10-29 04:33:00,
2013-10-28 23:48:00,69.3,66.0,30.12,SSE,148,0.0,5.0,89,0.00,,,0.00,weatherlink.com 1.10,2013-10-29 04:48:00,